createdAt,value
2019-03-20T00:00:33.752Z,16.93
2019-03-20T00:03:05.316Z,16.90
2019-03-20T00:05:36.536Z,14.87
2019-03-20T00:08:07.718Z,19.57
2019-03-20T00:10:38.966Z,12.87
2019-03-20T00:13:10.172Z,13.47
2019-03-20T00:15:41.423Z,13.80
2019-03-20T00:18:12.624Z,14.33
2019-03-20T00:20:43.843Z,13.40
2019-03-20T00:23:14.951Z,11.03
2019-03-20T00:25:46.118Z,13.13
2019-03-20T00:28:17.282Z,8.70
2019-03-20T00:30:48.420Z,12.53
2019-03-20T00:33:20.201Z,13.70
2019-03-20T00:35:51.542Z,8.37
2019-03-20T00:38:22.766Z,11.97
2019-03-20T00:40:53.960Z,9.00
2019-03-20T00:43:25.110Z,9.80
2019-03-20T00:45:56.302Z,11.63
2019-03-20T00:48:27.976Z,10.13
2019-03-20T00:51:00.293Z,10.93
2019-03-20T00:53:31.581Z,12.80
2019-03-20T00:56:02.781Z,7.77
2019-03-20T00:58:34.023Z,12.00
2019-03-20T01:01:05.204Z,8.70
2019-03-20T01:03:36.432Z,7.00
2019-03-20T01:06:07.604Z,12.17
2019-03-20T01:08:38.815Z,7.40
2019-03-20T01:11:09.993Z,7.97
2019-03-20T01:13:41.230Z,8.40
2019-03-20T01:16:13.374Z,8.33
2019-03-20T01:18:44.589Z,7.73
2019-03-20T01:21:15.727Z,8.90
2019-03-20T01:23:46.972Z,10.40
2019-03-20T01:26:18.109Z,10.07
2019-03-20T01:28:49.304Z,8.10
2019-03-20T01:31:21.574Z,10.40
2019-03-20T01:33:54.886Z,11.07
2019-03-20T01:36:25.574Z,10.27
2019-03-20T01:38:56.839Z,10.97
2019-03-20T01:41:37.643Z,12.37
2019-03-20T01:44:00.990Z,8.50
2019-03-20T01:46:32.194Z,9.30
2019-03-20T01:49:03.339Z,10.53
2019-03-20T01:51:34.499Z,9.80
2019-03-20T01:54:05.682Z,13.33
2019-03-20T01:56:37.043Z,8.30
2019-03-20T01:59:08.319Z,7.90
2019-03-20T02:01:39.588Z,11.53
2019-03-20T02:04:10.824Z,12.87
2019-03-20T02:06:41.974Z,9.60
2019-03-20T02:09:13.173Z,8.00
2019-03-20T02:11:44.332Z,9.20
2019-03-20T02:14:15.527Z,9.07
2019-03-20T02:16:46.735Z,8.67
2019-03-20T02:19:17.914Z,7.87
2019-03-20T02:21:49.233Z,8.63
2019-03-20T02:24:20.367Z,7.83
2019-03-20T02:26:51.567Z,8.40
2019-03-20T02:29:22.864Z,8.10
2019-03-20T02:31:54.025Z,8.63
2019-03-20T02:34:25.226Z,9.83
2019-03-20T02:36:56.424Z,7.50
2019-03-20T02:39:27.605Z,10.10
2019-03-20T02:41:58.773Z,7.90
2019-03-20T02:44:30.012Z,10.73
2019-03-20T02:47:01.189Z,9.83
2019-03-20T02:49:32.354Z,7.73
2019-03-20T02:52:04.251Z,7.43
2019-03-20T02:54:35.695Z,8.53
2019-03-20T02:57:06.966Z,10.23
2019-03-20T02:59:38.121Z,7.80
2019-03-20T03:02:10.393Z,8.17
2019-03-20T03:04:41.590Z,7.83
2019-03-20T03:07:12.839Z,14.20
2019-03-20T03:09:44.092Z,11.90
2019-03-20T03:12:15.320Z,7.37
2019-03-20T03:14:46.541Z,9.37
2019-03-20T03:17:17.857Z,8.00
2019-03-20T03:19:49.067Z,10.60
2019-03-20T03:22:20.218Z,8.20
2019-03-20T03:24:51.510Z,9.83
2019-03-20T03:27:23.636Z,7.77
2019-03-20T03:29:54.915Z,7.73
2019-03-20T03:32:26.106Z,7.70
2019-03-20T03:34:57.304Z,9.60
2019-03-20T03:37:28.512Z,7.97
2019-03-20T03:39:59.682Z,9.47
2019-03-20T03:42:30.948Z,9.10
2019-03-20T03:45:02.100Z,8.83
2019-03-20T03:47:34.375Z,8.30
2019-03-20T03:50:06.012Z,6.30
2019-03-20T03:52:37.329Z,6.47
2019-03-20T03:55:08.619Z,9.20
2019-03-20T03:57:39.778Z,9.73
2019-03-20T04:00:12.722Z,6.43
2019-03-20T04:02:43.945Z,6.87
2019-03-20T04:05:15.632Z,9.17
2019-03-20T04:07:47.015Z,5.90
2019-03-20T04:10:18.271Z,6.67
2019-03-20T04:12:49.492Z,6.13
2019-03-20T04:15:20.774Z,9.20
2019-03-20T04:17:51.949Z,7.23
2019-03-20T04:20:23.077Z,8.13
2019-03-20T04:22:54.263Z,6.73
2019-03-20T04:25:25.417Z,6.57
2019-03-20T04:27:59.168Z,6.47
2019-03-20T04:30:30.412Z,11.27
2019-03-20T04:33:01.706Z,12.93
2019-03-20T04:35:32.933Z,7.07
2019-03-20T04:38:04.185Z,6.40
2019-03-20T04:40:35.308Z,9.07
2019-03-20T04:43:06.486Z,8.57
2019-03-20T04:45:37.755Z,7.13
2019-03-20T04:48:08.953Z,8.40
2019-03-20T04:50:40.214Z,9.30
2019-03-20T04:53:11.395Z,6.63
2019-03-20T04:55:42.560Z,6.60
2019-03-20T04:58:14.823Z,11.67
2019-03-20T05:00:45.991Z,8.10
2019-03-20T05:03:17.264Z,9.40
2019-03-20T05:05:48.448Z,8.80
2019-03-20T05:08:19.761Z,9.60
2019-03-20T05:10:50.916Z,7.23
2019-03-20T05:13:22.143Z,6.53
2019-03-20T05:15:54.443Z,7.80
2019-03-20T05:18:25.822Z,7.27
2019-03-20T05:20:56.972Z,7.47
2019-03-20T05:23:29.023Z,7.43
2019-03-20T05:26:02.999Z,38.07
2019-03-20T05:28:34.995Z,14.90
2019-03-20T05:31:06.181Z,9.50
2019-03-20T05:33:37.382Z,6.90
2019-03-20T05:36:09.109Z,13.57
2019-03-20T05:38:40.343Z,17.70
2019-03-20T05:41:11.547Z,11.30
2019-03-20T05:43:42.660Z,7.67
2019-03-20T05:46:14.925Z,7.37
2019-03-20T05:48:46.095Z,15.93
2019-03-20T05:51:17.289Z,7.00
2019-03-20T05:53:49.649Z,6.60
2019-03-20T05:56:20.824Z,7.13
2019-03-20T05:58:52.002Z,11.00
2019-03-20T06:01:23.238Z,9.20
2019-03-20T06:03:54.520Z,6.70
2019-03-20T06:06:26.821Z,12.50
2019-03-20T06:08:58.012Z,13.23
2019-03-20T06:11:29.300Z,8.70
2019-03-20T06:14:00.494Z,8.37
2019-03-20T06:16:31.738Z,9.00
2019-03-20T06:19:02.920Z,7.10
2019-03-20T06:21:34.128Z,7.30
2019-03-20T06:24:05.332Z,14.87
2019-03-20T06:26:36.537Z,16.07
2019-03-20T06:29:07.781Z,12.63
2019-03-20T06:31:39.033Z,12.43
2019-03-20T06:34:10.174Z,8.37
2019-03-20T06:36:41.309Z,8.27
2019-03-20T06:39:12.580Z,8.40
2019-03-20T06:41:43.810Z,11.47
2019-03-20T06:44:15.021Z,8.70
2019-03-20T06:46:46.154Z,7.00
2019-03-20T06:49:17.368Z,8.17
2019-03-20T06:51:48.622Z,6.77
2019-03-20T06:54:19.941Z,7.43
2019-03-20T06:56:51.151Z,6.87
2019-03-20T07:00:11.820Z,11.03
2019-03-20T07:02:45.725Z,5.97
2019-03-20T07:06:01.891Z,9.83
2019-03-20T07:08:37.244Z,5.93
2019-03-20T07:11:08.424Z,6.03
2019-03-20T07:13:39.981Z,6.80
2019-03-20T07:16:11.340Z,8.27
2019-03-20T07:18:43.730Z,5.90
2019-03-20T07:21:14.414Z,5.47
2019-03-20T07:23:45.727Z,8.73
2019-03-20T07:26:16.976Z,9.67
2019-03-20T07:28:48.163Z,5.67
2019-03-20T07:31:19.387Z,5.77
2019-03-20T07:33:50.686Z,6.67
2019-03-20T07:36:22.164Z,5.13
2019-03-20T07:38:53.324Z,5.73
2019-03-20T07:41:24.520Z,5.87
2019-03-20T07:43:55.770Z,5.30
2019-03-20T07:46:26.968Z,6.00
2019-03-20T07:48:58.260Z,6.57
2019-03-20T07:51:29.664Z,7.20
2019-03-20T07:54:00.955Z,5.73
2019-03-20T07:56:32.233Z,10.07
2019-03-20T07:59:03.396Z,5.00
2019-03-20T08:01:34.607Z,4.70
2019-03-20T08:04:06.953Z,8.87
2019-03-20T08:06:38.118Z,7.33
2019-03-20T08:09:09.326Z,4.90
2019-03-20T08:11:40.509Z,10.23
2019-03-20T08:14:11.700Z,5.10
2019-03-20T08:16:42.962Z,5.20
2019-03-20T08:19:14.227Z,6.73
2019-03-20T08:21:45.480Z,12.10
2019-03-20T08:24:16.669Z,6.77
2019-03-20T08:26:47.908Z,6.53
2019-03-20T08:29:19.128Z,10.00
2019-03-20T08:31:50.359Z,6.33
2019-03-20T08:34:21.539Z,8.33
2019-03-20T08:36:52.691Z,7.57
2019-03-20T08:39:23.867Z,11.33
2019-03-20T08:41:55.138Z,10.57
2019-03-20T08:44:26.326Z,9.70
2019-03-20T08:46:57.491Z,11.87
2019-03-20T08:49:28.773Z,8.63
2019-03-20T08:51:59.899Z,10.33
2019-03-20T08:54:31.049Z,10.60
2019-03-20T08:57:03.223Z,9.87
2019-03-20T08:59:34.467Z,12.17
2019-03-20T09:02:05.748Z,14.43
2019-03-20T09:04:36.970Z,9.90
2019-03-20T09:07:08.281Z,16.00
2019-03-20T09:09:39.519Z,10.07
2019-03-20T09:12:10.780Z,17.60
2019-03-20T09:14:41.981Z,15.63
2019-03-20T09:17:13.159Z,18.03
2019-03-20T09:19:44.534Z,12.47
2019-03-20T09:22:15.738Z,17.47
2019-03-20T09:24:46.950Z,17.77
2019-03-20T09:27:19.161Z,15.17
2019-03-20T09:29:50.390Z,21.77
2019-03-20T09:32:21.693Z,18.87
2019-03-20T09:34:52.984Z,17.10
2019-03-20T09:37:24.210Z,18.77
2019-03-20T09:39:55.372Z,25.30
2019-03-20T09:42:26.718Z,21.50
2019-03-20T09:44:57.890Z,20.37
2019-03-20T09:47:29.140Z,22.20
2019-03-20T09:50:00.388Z,18.50
2019-03-20T09:52:31.628Z,23.20
2019-03-20T09:55:03.456Z,22.15
2019-03-20T09:57:35.296Z,22.13
2019-03-20T10:00:13.063Z,19.55
2019-03-20T10:02:44.511Z,21.83
2019-03-20T10:05:15.962Z,23.80
2019-03-20T10:07:47.073Z,26.02
2019-03-20T10:10:19.653Z,24.80
2019-03-20T10:12:50.921Z,26.95
2019-03-20T10:15:22.140Z,20.40
2019-03-20T10:17:53.449Z,24.82
2019-03-20T10:20:24.654Z,19.48
2019-03-20T10:22:55.924Z,21.87
2019-03-20T10:25:27.180Z,26.87
2019-03-20T10:27:58.461Z,21.75
2019-03-20T10:30:29.968Z,26.30
2019-03-20T10:33:01.213Z,22.63
2019-03-20T10:35:32.667Z,24.57
2019-03-20T10:38:03.898Z,20.33
2019-03-20T10:40:36.457Z,18.10
2019-03-20T10:43:07.730Z,22.70
2019-03-20T10:45:39.224Z,26.05
2019-03-20T10:48:11.602Z,20.27
2019-03-20T10:50:42.873Z,22.55
2019-03-20T10:53:14.139Z,23.27
2019-03-20T10:55:45.435Z,24.18
2019-03-20T10:58:16.723Z,21.12
2019-03-20T11:00:47.970Z,18.33
2019-03-20T11:03:19.336Z,17.45
2019-03-20T11:05:50.626Z,19.00
2019-03-20T11:08:22.087Z,20.55
2019-03-20T11:10:53.580Z,19.37
2019-03-20T11:13:24.918Z,19.40
2019-03-20T11:15:56.199Z,15.55
2019-03-20T11:18:27.483Z,18.62
2019-03-20T11:20:58.799Z,20.48
2019-03-20T11:23:30.034Z,21.68
2019-03-20T11:26:01.413Z,18.95
2019-03-20T11:28:32.911Z,25.35
2019-03-20T11:31:04.463Z,21.02
2019-03-20T11:33:36.113Z,19.77
2019-03-20T11:36:07.374Z,23.15
2019-03-20T11:38:38.601Z,19.80
2019-03-20T11:41:10.041Z,25.08
2019-03-20T11:43:41.375Z,15.75
2019-03-20T11:46:12.752Z,16.55
2019-03-20T11:48:44.061Z,16.60
2019-03-20T11:51:15.508Z,18.35
2019-03-20T11:53:46.774Z,19.30
2019-03-20T11:56:17.979Z,18.98
2019-03-20T11:58:49.344Z,21.45
2019-03-20T12:01:22.827Z,18.60
2019-03-20T12:03:55.015Z,17.87
2019-03-20T12:06:26.190Z,17.70
2019-03-20T12:08:58.339Z,20.70
2019-03-20T12:11:29.528Z,14.28
2019-03-20T12:14:00.701Z,16.50
2019-03-20T12:16:32.093Z,20.43
2019-03-20T12:19:03.341Z,20.85
2019-03-20T12:21:34.622Z,22.27
2019-03-20T12:24:05.927Z,17.92
2019-03-20T12:26:37.100Z,21.52
2019-03-20T12:29:08.394Z,24.80
2019-03-20T12:31:39.596Z,25.60
2019-03-20T12:34:10.824Z,24.67
2019-03-20T12:36:42.026Z,26.05
2019-03-20T12:39:13.323Z,14.87
2019-03-20T12:41:44.498Z,14.83
2019-03-20T12:44:15.799Z,15.53
2019-03-20T12:49:50.614Z,14.95
2019-03-20T12:52:21.985Z,15.25
2019-03-20T12:54:56.127Z,12.58
2019-03-20T12:57:27.488Z,17.75
2019-03-20T12:59:58.849Z,15.78
2019-03-20T13:02:30.140Z,14.63
2019-03-20T13:05:01.411Z,13.80
2019-03-20T13:07:32.576Z,10.98
2019-03-20T13:10:05.378Z,14.10
2019-03-20T13:12:36.563Z,11.48
2019-03-20T13:15:09.251Z,9.83
2019-03-20T13:17:40.395Z,9.95
2019-03-20T13:20:11.695Z,11.78
2019-03-20T13:22:42.927Z,10.43
2019-03-20T13:25:14.310Z,10.35
2019-03-20T13:27:45.526Z,12.50
2019-03-20T13:30:28.324Z,9.38
2019-03-20T13:32:59.552Z,13.45
2019-03-20T13:35:31.889Z,8.10
2019-03-20T13:38:03.118Z,9.68
2019-03-20T13:40:35.407Z,8.93
2019-03-20T13:43:07.178Z,10.08
2019-03-20T13:45:38.689Z,8.80
2019-03-20T13:48:10.329Z,8.28
2019-03-20T13:50:43.031Z,9.68
2019-03-20T13:53:15.473Z,11.00
2019-03-20T13:55:47.004Z,7.33
2019-03-20T13:58:18.707Z,8.73
2019-03-20T14:00:50.418Z,8.50
2019-03-20T14:03:21.780Z,7.05
2019-03-20T14:05:53.646Z,9.33
2019-03-20T14:08:25.266Z,6.83
2019-03-20T14:10:56.500Z,5.17
2019-03-20T14:13:30.522Z,7.33
2019-03-20T14:16:02.743Z,6.12
2019-03-20T14:18:34.045Z,5.33
2019-03-20T14:21:05.305Z,5.22
2019-03-20T14:23:36.505Z,7.03
2019-03-20T14:26:07.729Z,10.90
2019-03-20T14:28:38.865Z,7.10
2019-03-20T14:31:10.127Z,4.87
2019-03-20T14:33:41.328Z,3.60
2019-03-20T14:36:12.555Z,3.35
2019-03-20T14:38:43.790Z,4.47
2019-03-20T14:41:21.635Z,3.67
2019-03-20T14:43:47.921Z,5.50
2019-03-20T14:46:19.117Z,6.17
2019-03-20T14:48:50.316Z,3.77
2019-03-20T14:51:21.529Z,5.50
2019-03-20T14:53:52.708Z,5.97
2019-03-20T14:56:23.970Z,4.85
2019-03-20T14:58:55.153Z,4.17
2019-03-20T15:01:26.356Z,9.08
2019-03-20T15:03:57.593Z,5.72
2019-03-20T15:06:28.891Z,7.20
2019-03-20T15:09:00.239Z,6.60
2019-03-20T15:11:31.695Z,4.97
2019-03-20T15:14:02.947Z,5.97
2019-03-20T15:16:34.135Z,5.30
2019-03-20T15:19:07.051Z,6.53
2019-03-20T15:21:38.439Z,5.97
2019-03-20T15:24:09.661Z,8.48
2019-03-20T15:26:42.026Z,5.37
2019-03-20T15:29:13.347Z,8.58
2019-03-20T15:31:44.688Z,6.78
2019-03-20T15:34:16.401Z,7.47
2019-03-20T15:36:47.693Z,6.58
2019-03-20T15:39:18.950Z,5.10
2019-03-20T15:41:50.491Z,6.75
2019-03-20T15:44:22.030Z,9.00
2019-03-20T15:46:53.397Z,8.58
2019-03-20T15:49:24.717Z,7.42
2019-03-20T15:51:56.985Z,7.47
2019-03-20T15:54:28.346Z,8.95
2019-03-20T15:56:59.572Z,6.45
2019-03-20T15:59:31.151Z,10.30
2019-03-20T16:02:02.748Z,9.73
2019-03-20T16:04:34.952Z,7.55
2019-03-20T16:07:06.175Z,7.15
2019-03-20T16:09:37.417Z,9.23
2019-03-20T16:12:08.706Z,9.10
2019-03-20T16:14:40.137Z,11.05
2019-03-20T16:17:11.569Z,6.70
2019-03-20T16:19:42.778Z,9.63
2019-03-20T16:22:14.028Z,9.40
2019-03-20T16:24:45.312Z,11.15
2019-03-20T16:27:16.434Z,7.62
2019-03-20T16:29:47.725Z,10.13
2019-03-20T16:32:18.951Z,10.88
2019-03-20T16:34:50.270Z,8.65
2019-03-20T16:37:21.687Z,10.98
2019-03-20T16:39:53.011Z,10.75
2019-03-20T16:42:24.415Z,11.03
2019-03-20T16:44:55.731Z,10.32
2019-03-20T16:47:27.040Z,8.10
2019-03-20T16:49:58.279Z,9.00
2019-03-20T16:52:29.481Z,13.83
2019-03-20T16:55:00.662Z,9.98
2019-03-20T16:57:31.817Z,8.38
2019-03-20T17:00:03.135Z,16.32
2019-03-20T17:02:34.364Z,9.03
2019-03-20T17:05:05.929Z,9.23
2019-03-20T17:07:37.248Z,10.70
2019-03-20T17:10:15.182Z,8.40
2019-03-20T17:12:46.380Z,8.83
2019-03-20T17:15:24.644Z,9.55
2019-03-20T17:17:55.857Z,12.13
2019-03-20T17:20:27.049Z,11.48
2019-03-20T17:22:58.249Z,10.23
2019-03-20T17:25:29.495Z,16.07
2019-03-20T17:28:00.849Z,10.43
2019-03-20T17:30:36.025Z,9.58
2019-03-20T17:33:07.323Z,9.23
2019-03-20T17:35:38.716Z,7.80
2019-03-20T17:38:10.114Z,8.68
2019-03-20T17:40:41.446Z,12.98
2019-03-20T17:43:12.689Z,10.38
2019-03-20T17:45:43.904Z,15.50
2019-03-20T17:48:15.219Z,10.93
2019-03-20T17:50:46.514Z,11.28
2019-03-20T17:53:18.152Z,15.60
2019-03-20T17:55:49.827Z,10.65
2019-03-20T17:58:22.149Z,10.38
2019-03-20T18:00:54.894Z,9.58
2019-03-20T18:03:26.588Z,10.05
2019-03-20T18:05:58.119Z,11.55
2019-03-20T18:08:29.656Z,12.73
2019-03-20T18:11:01.135Z,9.13
2019-03-20T18:13:32.492Z,11.15
2019-03-20T18:16:03.882Z,9.30
2019-03-20T18:18:35.114Z,12.35
2019-03-20T18:21:06.392Z,11.80
2019-03-20T18:23:40.745Z,11.65
2019-03-20T18:26:12.151Z,11.88
2019-03-20T18:28:43.420Z,12.25
2019-03-20T18:31:14.689Z,15.20
2019-03-20T18:33:46.427Z,11.35
2019-03-20T18:36:19.404Z,12.93
2019-03-20T18:38:50.711Z,13.50
2019-03-20T18:41:21.975Z,11.43
2019-03-20T18:43:53.193Z,12.98
2019-03-20T18:46:24.411Z,14.15
2019-03-20T18:48:55.614Z,12.93
2019-03-20T18:51:26.846Z,10.60
2019-03-20T18:53:58.154Z,13.78
2019-03-20T18:56:29.462Z,13.70
2019-03-20T18:59:02.773Z,10.95
2019-03-20T19:01:33.750Z,11.38
2019-03-20T19:04:04.928Z,11.33
2019-03-20T19:06:36.174Z,14.07
2019-03-20T19:09:09.902Z,14.00
2019-03-20T19:11:41.244Z,13.32
2019-03-20T19:14:12.807Z,12.37
2019-03-20T19:16:45.059Z,11.57
2019-03-20T19:19:16.426Z,13.72
2019-03-20T19:21:54.549Z,13.45
2019-03-20T19:27:56.114Z,13.32
2019-03-20T19:30:40.234Z,12.10
2019-03-20T19:33:21.512Z,13.62
2019-03-20T19:35:52.721Z,15.80
2019-03-20T19:38:34.250Z,15.03
2019-03-20T19:40:56.832Z,12.73
2019-03-20T19:43:28.112Z,15.88
2019-03-20T19:45:59.457Z,13.30
2019-03-20T19:48:30.858Z,14.73
2019-03-20T19:51:02.250Z,18.50
2019-03-20T19:53:33.509Z,13.70
2019-03-20T19:56:05.729Z,15.03
2019-03-20T19:58:36.976Z,10.80
2019-03-20T20:01:08.246Z,14.07
2019-03-20T20:03:39.553Z,13.55
2019-03-20T20:06:11.429Z,13.00
2019-03-20T20:08:42.884Z,12.20
2019-03-20T20:11:14.257Z,15.60
2019-03-20T20:13:47.210Z,13.30
2019-03-20T20:16:18.542Z,14.30
2019-03-20T20:18:50.815Z,15.70
2019-03-20T20:21:22.156Z,14.13
2019-03-20T20:23:53.409Z,14.90
2019-03-20T20:26:25.702Z,13.95
2019-03-20T20:28:57.033Z,11.85
2019-03-20T20:31:28.286Z,15.30
2019-03-20T20:33:59.545Z,15.38
2019-03-20T20:36:30.747Z,16.70
2019-03-20T20:39:02.025Z,16.02
2019-03-20T20:41:34.593Z,14.63
2019-03-20T20:44:06.876Z,15.80
2019-03-20T20:46:39.207Z,15.35
2019-03-20T20:49:10.643Z,11.55
2019-03-20T20:51:41.805Z,12.75
2019-03-20T20:54:13.194Z,14.03
2019-03-20T20:56:44.464Z,14.85
2019-03-20T20:59:15.643Z,15.93
2019-03-20T21:01:46.939Z,14.98
2019-03-20T21:04:18.155Z,11.55
2019-03-20T21:06:49.530Z,12.65
2019-03-20T21:09:21.082Z,14.70
2019-03-20T21:11:52.791Z,10.93
2019-03-20T21:14:24.150Z,13.10
2019-03-20T21:16:55.999Z,13.65
2019-03-20T21:19:44.575Z,16.48
2019-03-20T21:22:58.622Z,12.15
2019-03-20T21:25:30.440Z,15.70
2019-03-20T21:28:57.899Z,14.28
2019-03-20T21:31:41.796Z,12.70
2019-03-20T21:35:06.368Z,12.13
2019-03-20T21:38:03.526Z,11.73
2019-03-20T21:41:17.823Z,12.78
2019-03-20T21:44:33.327Z,15.50
2019-03-20T21:47:30.004Z,14.05
2019-03-20T21:50:32.251Z,15.50
2019-03-20T21:53:04.026Z,12.90
2019-03-20T21:56:01.171Z,13.60
2019-03-20T21:58:46.373Z,15.18
2019-03-20T22:01:57.247Z,17.10
2019-03-20T22:04:29.077Z,13.90
2019-03-20T22:07:17.745Z,12.82
2019-03-20T22:10:25.328Z,16.77
2019-03-20T22:13:26.724Z,14.53
2019-03-20T22:16:57.292Z,13.88
2019-03-20T22:19:56.975Z,14.83
2019-03-20T22:22:54.711Z,13.90
2019-03-20T22:25:41.447Z,12.90
2019-03-20T22:28:51.249Z,16.10
2019-03-20T22:31:23.250Z,10.93
2019-03-20T22:34:43.496Z,12.47
2019-03-20T22:37:15.879Z,13.20
2019-03-20T22:40:34.324Z,11.43
2019-03-20T22:43:30.329Z,14.38
2019-03-20T22:46:44.023Z,15.95
2019-03-20T22:49:51.732Z,12.60
2019-03-20T22:52:52.060Z,12.85
2019-03-20T22:55:56.205Z,14.70
2019-03-20T22:58:46.955Z,14.38
2019-03-20T23:01:41.759Z,17.77
2019-03-20T23:04:17.967Z,16.93
2019-03-20T23:06:49.824Z,19.35
2019-03-20T23:09:21.524Z,19.55
2019-03-20T23:11:54.590Z,20.20
2019-03-20T23:14:26.647Z,19.67
2019-03-20T23:16:58.358Z,22.65
2019-03-20T23:19:30.261Z,22.07
2019-03-20T23:22:02.067Z,20.62
2019-03-20T23:24:34.738Z,22.40
2019-03-20T23:27:09.030Z,20.80
2019-03-20T23:29:41.914Z,24.45
2019-03-20T23:32:13.687Z,23.45
2019-03-20T23:34:45.473Z,24.07
2019-03-20T23:37:17.163Z,19.15
2019-03-20T23:39:48.949Z,18.73
2019-03-20T23:42:21.558Z,21.37
2019-03-20T23:44:53.328Z,19.65
2019-03-20T23:47:30.859Z,23.90
2019-03-20T23:50:03.621Z,22.25
2019-03-20T23:52:35.436Z,23.15
2019-03-20T23:55:08.969Z,22.52
2019-03-20T23:57:40.810Z,24.32
